x

Fairweather Ground 105nm West Of Juno, Ak (46083) Wave Buoy

8:50pm - Mon 29th May 2017 All times are AKDT. -8 hours from GMT.

  • Sig Wave height 2.6ft
  • Swell Direction
  • Peak Period 14s
  • Average Period 6s
  • Wind
    4mph, 4mph gusts
  • Sea Temp 49°f
  • Air Temp 48°f
  • Sea Pressure 1016.1mb
  • Fairweather Ground 105nm West  Of Juno, Ak
  • Fairweather Ground 105nm West  Of Juno, Ak

More Historic Weather Station data

Upgrade to MSW Pro to gain access to the past 30 days of data for over 8000 Wavebouys and Weather Stations around the globe.

Join Pro

Comparision Forecast

View Surf forecast
   
Mon 05/29 8:50pm 2.5ft 14s 6s 4 4 mph 1016.1mb 49f 48f
7:50pm 2.5ft 13s 6s 4 4 mph 1016.3mb 49f 48f
6:50pm 3ft 13s 6s 4 4 mph 1016.7mb 49f 48f
5:50pm 3ft 6s 6s 7 7 mph 1016.9mb 49f 48f
4:50pm 3.5ft 14s 6s 7 9 mph 1017.4mb 49f 48f
3:50pm 3.5ft 14s 6s 7 9 mph 1017.9mb 49f 49f
2:50pm 3.5ft 7s 6s 7 7 mph 1018.2mb 48f 49f
1:50pm 3.5ft 7s 6s 9 9 mph 1018.3mb 48f 48f
12:50pm 3.5ft 7s 6s 9 11 mph 1018.1mb 48f 48f
11:50am 3.5ft 7s 6s 9 9 mph 1017.8mb 48f 48f
10:50am 3.5ft 7s 6s 7 9 mph 1017.5mb 48f 48f
9:50am 3.5ft 9s 6s 11 11 mph 1017.3mb 48f 48f
8:50am 3.5ft 9s 6s 9 11 mph 1016.9mb 48f 48f
7:50am 3.5ft 8s 6s 11 11 mph 1016.6mb 48f 48f
6:50am 3.5ft 7s 6s 9 11 mph 1016.3mb 48f 48f
5:50am 3.5ft 8s 6s 9 9 mph 1015.9mb 48f 48f
4:50am 3.5ft 14s 5s 11 13 mph 1015.7mb 48f 48f
3:50am 3.5ft 10s 5s 11 13 mph 1015.6mb 48f 48f
2:50am 4ft 8s 5s 13 16 mph 1015.1mb 48f 48f
1:50am 4ft 9s 5s 13 16 mph 1014.5mb 48f 48f
12:50am 4ft 9s 5s 18 22 mph 1013.9mb 48f 48f
Sun 05/28 11:50pm 3.5ft 8s 6s 16 20 mph 1013.8mb 48f 49f
10:50pm 3ft 9s 6s 16 18 mph 1013.7mb 48f 50f
9:50pm 3ft 9s 7s 13 16 mph 1013.7mb 48f 51f
8:50pm 3ft 15s 7s 11 11 mph 1013.9mb 48f 52f
7:50pm 2.5ft 10s 6s 11 13 mph 1014mb 48f 53f
6:50pm 3ft 9s 6s 9 9 mph 1014.2mb 48f 51f
5:50pm 2.5ft 9s 6s 11 13 mph 1014.4mb 48f 52f
4:50pm 2.5ft 14s 5s 7 9 mph 1014.5mb 48f 52f
3:50pm 2.5ft 10s 5s 9 11 mph 1014.8mb 48f 53f
2:50pm 3ft 15s 5s 9 9 mph 1015.5mb 48f 52f
1:50pm 3ft 5s 5s 11 13 mph 1015.6mb 48f 52f
12:50pm 3ft 14s 5s 13 16 mph 1015.7mb 48f 52f
11:50am 3ft 14s 5s 9 11 mph 1015.9mb 48f 51f
10:50am 2.5ft 15s 5s 4 7 mph 1016.3mb 48f 50f
9:50am 2.5ft 15s 5s 7 7 mph 1016.2mb 48f 49f
8:50am 2.5ft 14s 6s 2 4 mph 1016.7mb 48f 51f
7:50am 2.5ft 15s 7s  -  2 mph 1017.1mb 47f 50f
6:50am 2.5ft 15s 7s  -  0 mph 1017.6mb 47f 49f
5:50am 2.5ft 14s 7s  -  0 mph 1018.1mb 47f 49f
4:50am 2ft 15s 6s 4 7 mph 1018.4mb 47f 49f
3:50am 2.5ft 15s 6s 7 9 mph 1019mb 47f 48f
2:50am 2.5ft 14s 6s 11 11 mph 1019.6mb 47f 48f
1:50am 2.5ft 15s 6s 7 9 mph 1020.5mb 47f 48f
12:50am 2.5ft 10s 5s 11 13 mph 1020.8mb 48f 48f
Sat 05/27 11:50pm 2.5ft 14s 5s 11 13 mph 1021.4mb 48f 47f
10:50pm 2.5ft 15s 6s 11 13 mph 1022.2mb 48f 47f
9:50pm 2.5ft 15s 6s 11 13 mph 1022.7mb 48f 47f
8:50pm 3ft 10s 6s 11 13 mph 1022.7mb 48f 47f
7:50pm 3ft 10s 7s 11 13 mph 1023.3mb 49f 47f
6:50pm 3ft 9s 7s 9 11 mph 1023.9mb 49f 47f
5:50pm 3.5ft 9s 7s 9 9 mph 1024.5mb 49f 47f
4:50pm 3ft 10s 7s 7 9 mph 1024.8mb 49f 47f
3:50pm 3ft 10s 7s 7 7 mph 1025.2mb 49f 47f
2:50pm 3.5ft 10s 7s 4 7 mph 1025.4mb 49f 47f
1:50pm 3.5ft 10s 7s 4 4 mph 1025.6mb 49f 47f
12:50pm 3.5ft 10s 7s 4 4 mph 1025.7mb 48f 47f
11:50am 3.5ft 10s 7s 4 7 mph 1025.7mb 48f 46f
10:50am 3.5ft 10s 7s 4 7 mph 1025.5mb 47f 46f
9:50am 3.5ft 8s 7s 4 7 mph 1025.2mb 47f 46f
8:50am 3.5ft 8s 7s 4 7 mph 1024.8mb 47f 46f
7:50am 4ft 10s 7s 7 9 mph 1024.5mb 47f 46f
6:50am 3.5ft 10s 7s 7 7 mph 1024.4mb 47f 46f
5:50am 4ft 10s 7s 7 9 mph 1024.3mb 47f 46f
4:50am 4ft 10s 6s 9 11 mph 1024.2mb 47f 46f
3:50am 4ft 10s 6s 9 11 mph 1024mb 47f 46f
2:50am 4.5ft 8s 6s 9 11 mph 1024mb 47f 46f
1:50am 3.5ft 7s 6s 11 13 mph 1024.1mb 47f 46f
12:50am 4ft 10s 6s 11 13 mph 1024.2mb 47f 46f
Fri 05/26 11:50pm 4ft 8s 6s 11 13 mph 1024.3mb 47f 46f
10:50pm 4.5ft 10s 6s 11 13 mph 1024.2mb 47f 46f
9:50pm 4.5ft 10s 6s 11 13 mph 1024.1mb 47f 46f
8:50pm 4.5ft 10s 6s 13 16 mph 1023.7mb 47f 47f
7:50pm 4.5ft 11s 6s 13 16 mph 1023.6mb 47f 47f
6:50pm 4.5ft 10s 6s 13 16 mph 1023.6mb 47f 47f
5:50pm 4.5ft 9s 6s 16 18 mph 1023.7mb 47f 47f
4:50pm 5ft 10s 6s 16 18 mph 1023.6mb 47f 47f
3:50pm 4.5ft 11s 6s 13 16 mph 1023.3mb 47f 46f
2:50pm 4.5ft 10s 6s 13 16 mph 1023.2mb 47f 46f
1:50pm 4.5ft 10s 6s 13 18 mph 1023.1mb 46f 46f
12:50pm 5ft 9s 6s 13 18 mph 1022.9mb 46f 46f
11:50am 5ft 11s 6s 13 16 mph 1023mb 46f 46f
10:50am 5ft 11s 6s 13 16 mph 1022.7mb 46f 46f
9:50am 5.5ft 10s 6s 13 16 mph 1022.4mb 46f 46f
8:50am 5ft 11s 6s 13 18 mph 1022.2mb 46f 46f
7:50am 5ft 11s 7s 16 18 mph 1022mb 46f 46f